createdAt,value
2024-05-09T00:00:38.774Z,1.30
2024-05-09T00:01:33.079Z,1.20
2024-05-09T00:02:32.083Z,1.30
2024-05-09T00:03:32.012Z,1.70
2024-05-09T00:04:32.018Z,1.70
2024-05-09T00:05:32.123Z,1.20
2024-05-09T00:06:31.979Z,1.50
2024-05-09T00:07:31.975Z,1.40
2024-05-09T00:08:32.136Z,1.40
2024-05-09T00:09:31.975Z,1.70
2024-05-09T00:10:36.205Z,1.10
2024-05-09T00:11:33.023Z,1.30
2024-05-09T00:12:31.990Z,1.30
2024-05-09T00:13:31.948Z,1.40
2024-05-09T00:14:32.161Z,1.80
2024-05-09T00:15:31.937Z,1.90
2024-05-09T00:16:31.965Z,1.40
2024-05-09T00:17:32.116Z,1.60
2024-05-09T00:18:31.997Z,1.70
2024-05-09T00:19:32.259Z,1.30
2024-05-09T00:20:38.197Z,1.40
2024-05-09T00:21:33.940Z,1.30
2024-05-09T00:22:31.905Z,1.60
2024-05-09T00:23:32.011Z,1.80
2024-05-09T00:24:31.889Z,1.50
2024-05-09T00:25:31.895Z,1.30
2024-05-09T00:26:31.964Z,1.80
2024-05-09T00:27:31.877Z,1.30
2024-05-09T00:28:31.878Z,1.60
2024-05-09T00:29:31.903Z,1.50
2024-05-09T00:30:35.352Z,1.50
2024-05-09T00:31:31.878Z,1.70
2024-05-09T00:32:32.024Z,1.30
2024-05-09T00:33:31.942Z,1.30
2024-05-09T00:34:31.931Z,1.50
2024-05-09T00:35:31.890Z,1.60
2024-05-09T00:36:31.829Z,1.30
2024-05-09T00:37:31.834Z,1.70
2024-05-09T00:38:31.988Z,1.30
2024-05-09T00:39:31.776Z,1.20
2024-05-09T00:40:38.691Z,1.70
2024-05-09T00:41:32.990Z,1.70
2024-05-09T00:42:31.782Z,1.50
2024-05-09T00:43:31.773Z,1.60
2024-05-09T00:44:31.863Z,1.40
2024-05-09T00:45:31.821Z,1.80
2024-05-09T00:46:31.789Z,1.80
2024-05-09T00:47:31.856Z,1.50
2024-05-09T00:48:31.835Z,1.30
2024-05-09T00:49:31.842Z,1.40
2024-05-09T00:50:36.214Z,1.40
2024-05-09T00:51:32.777Z,1.70
2024-05-09T00:52:31.748Z,1.40
2024-05-09T00:53:31.849Z,1.40
2024-05-09T00:54:31.723Z,1.30
2024-05-09T00:55:31.727Z,1.60
2024-05-09T00:56:31.779Z,1.60
2024-05-09T00:57:31.730Z,1.40
2024-05-09T00:58:31.681Z,1.40
2024-05-09T00:59:31.814Z,1.20
2024-05-09T01:00:38.349Z,1.10
2024-05-09T01:01:32.728Z,1.60
2024-05-09T01:02:31.734Z,1.20
2024-05-09T01:03:31.895Z,1.20
2024-05-09T01:04:31.750Z,1.20
2024-05-09T01:05:31.692Z,1.40
2024-05-09T01:06:31.666Z,1.30
2024-05-09T01:07:31.663Z,1.30
2024-05-09T01:08:31.710Z,1.50
2024-05-09T01:09:31.646Z,1.30
2024-05-09T01:10:34.727Z,1.40
2024-05-09T01:11:32.761Z,1.10
2024-05-09T01:12:31.708Z,1.40
2024-05-09T01:13:31.628Z,1.60
2024-05-09T01:14:31.666Z,1.40
2024-05-09T01:15:31.582Z,1.40
2024-05-09T01:16:31.600Z,1.40
2024-05-09T01:17:31.860Z,1.30
2024-05-09T01:18:31.675Z,1.10
2024-05-09T01:19:31.774Z,1.10
2024-05-09T01:20:39.858Z,1.50
2024-05-09T01:21:33.602Z,1.50
2024-05-09T01:22:31.584Z,1.60
2024-05-09T01:23:31.703Z,1.20
2024-05-09T01:24:31.602Z,1.60
2024-05-09T01:25:31.554Z,1.50
2024-05-09T01:26:31.564Z,1.30
2024-05-09T01:27:31.587Z,1.40
2024-05-09T01:28:32.540Z,1.40
2024-05-09T01:29:31.546Z,1.60
2024-05-09T01:30:35.255Z,1.50
2024-05-09T01:31:33.583Z,1.30
2024-05-09T01:32:31.695Z,1.50
2024-05-09T01:33:31.774Z,1.50
2024-05-09T01:34:31.494Z,1.30
2024-05-09T01:35:31.547Z,1.50
2024-05-09T01:36:31.497Z,1.60
2024-05-09T01:37:31.487Z,1.70
2024-05-09T01:38:31.684Z,1.60
2024-05-09T01:39:31.469Z,1.20
2024-05-09T01:40:37.969Z,1.20
2024-05-09T01:41:33.498Z,1.50
2024-05-09T01:42:31.456Z,1.60
2024-05-09T01:43:31.467Z,1.30
2024-05-09T01:44:31.517Z,1.30
2024-05-09T01:45:31.531Z,1.30
2024-05-09T01:46:31.428Z,1.10
2024-05-09T01:47:31.599Z,1.10
2024-05-09T01:48:31.514Z,1.40
2024-05-09T01:49:31.471Z,1.10
2024-05-09T01:50:38.225Z,1.20
2024-05-09T01:51:33.395Z,1.40
2024-05-09T01:52:31.418Z,1.10
2024-05-09T01:53:31.565Z,1.30
2024-05-09T01:54:31.375Z,1.30
2024-05-09T01:55:31.374Z,1.10
2024-05-09T01:56:31.389Z,1.20
2024-05-09T01:57:31.551Z,1.30
2024-05-09T01:58:31.381Z,1.10
2024-05-09T01:59:31.396Z,1.20
2024-05-09T02:00:38.412Z,1.40
2024-05-09T02:01:55.382Z,1.40
2024-05-09T02:02:31.422Z,1.30
2024-05-09T02:03:31.580Z,1.30
2024-05-09T02:04:31.495Z,1.40
2024-05-09T02:05:31.369Z,0.90
2024-05-09T02:06:31.305Z,1.50
2024-05-09T02:07:31.346Z,0.90
2024-05-09T02:08:31.396Z,1.20
2024-05-09T02:09:31.283Z,1.30
2024-05-09T02:10:32.995Z,1.10
2024-05-09T02:11:31.422Z,1.50
2024-05-09T02:12:31.429Z,0.90
2024-05-09T02:13:31.290Z,1.20
2024-05-09T02:14:31.467Z,1.50
2024-05-09T02:15:31.272Z,1.20
2024-05-09T02:16:31.271Z,1.00
2024-05-09T02:17:31.394Z,1.20
2024-05-09T02:18:31.354Z,1.20
2024-05-09T02:19:31.373Z,1.20
2024-05-09T02:20:36.004Z,1.30
2024-05-09T02:21:32.237Z,1.10
2024-05-09T02:22:31.251Z,0.90
2024-05-09T02:23:31.354Z,1.00
2024-05-09T02:24:31.218Z,1.40
2024-05-09T02:25:31.217Z,1.30
2024-05-09T02:26:31.216Z,1.30
2024-05-09T02:27:31.205Z,1.00
2024-05-09T02:28:31.209Z,1.50
2024-05-09T02:29:31.308Z,1.20
2024-05-09T02:30:39.074Z,1.20
2024-05-09T02:31:32.167Z,1.10
2024-05-09T02:32:31.310Z,1.40
2024-05-09T02:33:31.516Z,1.00
2024-05-09T02:34:31.215Z,0.90
2024-05-09T02:35:31.242Z,0.90
2024-05-09T02:36:31.133Z,0.80
2024-05-09T02:37:31.134Z,1.00
2024-05-09T02:38:31.205Z,0.90
2024-05-09T02:39:31.145Z,0.90
2024-05-09T02:40:37.422Z,1.00
2024-05-09T02:41:33.151Z,1.00
2024-05-09T02:42:31.102Z,1.30
2024-05-09T02:43:31.104Z,1.00
2024-05-09T02:44:31.139Z,1.00
2024-05-09T02:45:31.070Z,0.90
2024-05-09T02:46:31.069Z,1.30
2024-05-09T02:47:31.189Z,1.40
2024-05-09T02:48:31.193Z,1.20
2024-05-09T02:49:31.154Z,1.20
2024-05-09T02:50:37.668Z,1.20
2024-05-09T02:51:32.091Z,0.90
2024-05-09T02:52:31.051Z,1.00
2024-05-09T02:53:31.209Z,1.00
2024-05-09T02:54:31.049Z,0.90
2024-05-09T02:55:31.113Z,1.00
2024-05-09T02:56:31.090Z,1.00
2024-05-09T02:57:31.024Z,1.20
2024-05-09T02:58:31.057Z,1.20
2024-05-09T02:59:31.059Z,1.10
2024-05-09T03:00:38.060Z,1.30
2024-05-09T03:01:32.042Z,1.10
2024-05-09T03:02:31.155Z,0.80
2024-05-09T03:03:31.573Z,1.20
2024-05-09T03:04:31.274Z,1.00
2024-05-09T03:05:31.191Z,1.00
2024-05-09T03:06:37.632Z,1.20
2024-05-09T03:07:30.973Z,1.00
2024-05-09T03:08:31.906Z,1.10
2024-05-09T03:09:30.940Z,1.10
2024-05-09T03:10:35.774Z,1.50
2024-05-09T03:11:32.034Z,1.10
2024-05-09T03:12:31.003Z,1.20
2024-05-09T03:13:31.024Z,1.10
2024-05-09T03:14:31.046Z,1.30
2024-05-09T03:15:30.923Z,1.20
2024-05-09T03:16:30.922Z,1.30
2024-05-09T03:17:31.253Z,1.40
2024-05-09T03:18:31.079Z,1.50
2024-05-09T03:19:30.995Z,1.70
2024-05-09T03:20:34.537Z,1.60
2024-05-09T03:21:30.883Z,1.40
2024-05-09T03:22:30.876Z,1.20
2024-05-09T03:23:30.974Z,1.50
2024-05-09T03:24:30.902Z,1.90
2024-05-09T03:25:30.872Z,1.80
2024-05-09T03:26:30.968Z,1.50
2024-05-09T03:27:30.885Z,1.60
2024-05-09T03:28:30.871Z,1.50
2024-05-09T03:29:31.000Z,1.40
2024-05-09T03:30:39.518Z,1.90
2024-05-09T03:31:31.820Z,2.10
2024-05-09T03:32:31.012Z,1.70
2024-05-09T03:33:31.132Z,1.60
2024-05-09T03:34:30.960Z,1.40
2024-05-09T03:35:30.951Z,1.70
2024-05-09T03:36:30.783Z,1.90
2024-05-09T03:37:30.795Z,1.50
2024-05-09T03:38:31.009Z,1.40
2024-05-09T03:39:30.813Z,1.60
2024-05-09T03:40:31.318Z,1.60
2024-05-09T03:41:30.871Z,1.50
2024-05-09T03:42:30.793Z,1.50
2024-05-09T03:43:30.784Z,1.60
2024-05-09T03:44:30.830Z,1.60
2024-05-09T03:45:30.790Z,1.30
2024-05-09T03:46:30.784Z,1.10
2024-05-09T03:47:30.912Z,1.30
2024-05-09T03:48:30.797Z,1.30
2024-05-09T03:49:30.861Z,1.40
2024-05-09T03:50:35.416Z,1.00
2024-05-09T03:51:31.722Z,1.00
2024-05-09T03:52:30.700Z,1.10
2024-05-09T03:53:30.726Z,1.20
2024-05-09T03:54:30.724Z,1.20
2024-05-09T03:55:30.740Z,1.20
2024-05-09T03:56:30.812Z,1.30
2024-05-09T03:57:30.712Z,0.90
2024-05-09T03:58:30.688Z,1.30
2024-05-09T03:59:30.902Z,1.30
2024-05-09T04:00:37.360Z,1.30
2024-05-09T04:01:30.783Z,1.10
2024-05-09T04:02:30.716Z,1.00
2024-05-09T04:03:30.792Z,1.40
2024-05-09T04:04:30.874Z,1.50
2024-05-09T04:05:31.230Z,1.00
2024-05-09T04:06:30.630Z,1.30
2024-05-09T04:07:30.628Z,1.40
2024-05-09T04:08:30.695Z,1.20
2024-05-09T04:09:30.616Z,1.00
2024-05-09T04:10:33.784Z,1.20
2024-05-09T04:11:30.734Z,1.20
2024-05-09T04:12:30.641Z,1.20
2024-05-09T04:13:30.594Z,1.30
2024-05-09T04:14:30.684Z,1.30
2024-05-09T04:15:30.632Z,1.10
2024-05-09T04:16:30.578Z,1.40
2024-05-09T04:17:30.802Z,1.30
2024-05-09T04:18:30.635Z,1.50
2024-05-09T04:19:30.641Z,1.10
2024-05-09T04:20:37.723Z,1.20
2024-05-09T04:21:32.568Z,1.00
2024-05-09T04:22:30.542Z,1.40
2024-05-09T04:23:30.612Z,1.20
2024-05-09T04:24:30.525Z,1.30
2024-05-09T04:25:30.547Z,1.10
2024-05-09T04:26:30.583Z,1.40
2024-05-09T04:27:30.514Z,1.30
2024-05-09T04:28:30.504Z,1.00
2024-05-09T04:29:30.674Z,1.30
2024-05-09T04:30:37.258Z,1.50
2024-05-09T04:31:32.488Z,1.30
2024-05-09T04:32:30.593Z,1.00
2024-05-09T04:33:30.919Z,1.50
2024-05-09T04:34:30.564Z,1.10
2024-05-09T04:35:30.562Z,1.20
2024-05-09T04:36:30.453Z,1.20
2024-05-09T04:37:30.456Z,1.20
2024-05-09T04:38:30.483Z,1.20
2024-05-09T04:39:30.493Z,1.40
2024-05-09T04:40:34.352Z,1.60
2024-05-09T04:41:30.466Z,1.00
2024-05-09T04:42:30.439Z,1.40
2024-05-09T04:43:30.426Z,1.00
2024-05-09T04:44:30.548Z,1.30
2024-05-09T04:45:30.526Z,1.10
2024-05-09T04:46:30.434Z,1.50
2024-05-09T04:47:30.631Z,1.10
2024-05-09T04:48:30.508Z,1.20
2024-05-09T04:49:30.517Z,1.10
2024-05-09T04:50:36.658Z,1.10
2024-05-09T04:51:31.379Z,1.20
2024-05-09T04:52:30.364Z,1.20
2024-05-09T04:53:30.405Z,1.00
2024-05-09T04:54:36.074Z,1.40
2024-05-09T04:55:30.475Z,0.90
2024-05-09T04:56:30.397Z,1.10
2024-05-09T04:57:30.358Z,1.20
2024-05-09T04:58:30.335Z,1.40
2024-05-09T04:59:30.558Z,1.00
2024-05-09T05:00:36.055Z,1.40
2024-05-09T05:01:31.350Z,1.20
2024-05-09T05:02:30.401Z,1.20
2024-05-09T05:03:30.485Z,1.10
2024-05-09T05:04:30.385Z,1.10
2024-05-09T05:05:30.416Z,1.00
2024-05-09T05:06:30.323Z,1.50
2024-05-09T05:07:30.299Z,1.40
2024-05-09T05:08:30.306Z,1.60
2024-05-09T05:09:30.277Z,1.70
2024-05-09T05:10:35.778Z,1.40
2024-05-09T05:11:31.344Z,1.50
2024-05-09T05:12:30.336Z,1.60
2024-05-09T05:13:30.258Z,1.10
2024-05-09T05:14:30.374Z,1.30
2024-05-09T05:15:30.240Z,1.30
2024-05-09T05:16:30.249Z,1.50
2024-05-09T05:17:30.432Z,1.80
2024-05-09T05:18:31.314Z,1.90
2024-05-09T05:19:30.487Z,1.80
2024-05-09T05:20:33.654Z,1.70
2024-05-09T05:21:31.355Z,1.40
2024-05-09T05:22:30.200Z,1.40
2024-05-09T05:23:30.287Z,1.80
2024-05-09T05:24:30.246Z,1.60
2024-05-09T05:25:30.216Z,1.80
2024-05-09T05:26:30.240Z,2.00
2024-05-09T05:27:30.193Z,1.80
2024-05-09T05:28:30.203Z,1.60
2024-05-09T05:29:30.229Z,2.00
2024-05-09T05:30:34.512Z,1.70
2024-05-09T05:31:30.225Z,2.00
2024-05-09T05:32:30.400Z,1.90
2024-05-09T05:33:30.380Z,2.20
2024-05-09T05:34:30.171Z,1.80
2024-05-09T05:35:30.364Z,1.50
2024-05-09T05:36:30.244Z,1.70
2024-05-09T05:37:30.142Z,2.20
2024-05-09T05:38:30.224Z,2.20
2024-05-09T05:39:30.163Z,2.00
2024-05-09T05:40:36.250Z,1.60
2024-05-09T05:41:31.244Z,1.80
2024-05-09T05:42:30.195Z,1.90
2024-05-09T05:43:30.121Z,1.50
2024-05-09T05:44:30.179Z,1.70
2024-05-09T05:45:30.106Z,1.60
2024-05-09T05:46:30.123Z,2.10
2024-05-09T05:47:30.207Z,1.90
2024-05-09T05:48:30.131Z,1.80
2024-05-09T05:49:30.155Z,1.40
2024-05-09T05:50:35.552Z,1.70
2024-05-09T05:51:31.133Z,1.90
2024-05-09T05:52:30.066Z,1.80
2024-05-09T05:53:30.104Z,2.10
2024-05-09T05:54:30.054Z,1.70
2024-05-09T05:55:30.106Z,2.00
2024-05-09T05:56:30.078Z,1.90
2024-05-09T05:57:30.052Z,1.90
2024-05-09T05:58:30.032Z,1.80
2024-05-09T05:59:30.024Z,1.80
2024-05-09T06:00:37.467Z,1.80
2024-05-09T06:01:31.176Z,2.10
2024-05-09T06:02:30.101Z,1.90
2024-05-09T06:03:30.093Z,1.60
2024-05-09T06:04:30.075Z,1.90
2024-05-09T06:05:30.079Z,1.90
2024-05-09T06:06:29.987Z,1.90
2024-05-09T06:07:29.988Z,1.50
2024-05-09T06:08:30.630Z,1.60
2024-05-09T06:09:30.961Z,1.90
2024-05-09T06:10:37.435Z,1.90
2024-05-09T06:11:32.101Z,1.80
2024-05-09T06:12:30.021Z,2.10
2024-05-09T06:13:29.970Z,2.00
2024-05-09T06:14:30.083Z,2.10
2024-05-09T06:15:29.936Z,1.60
2024-05-09T06:16:29.941Z,1.90
2024-05-09T06:17:29.983Z,2.30
2024-05-09T06:18:30.355Z,2.30
2024-05-09T06:19:29.988Z,2.10
2024-05-09T06:20:35.351Z,2.60
2024-05-09T06:21:31.931Z,2.60
2024-05-09T06:22:30.018Z,1.80
2024-05-09T06:23:29.949Z,2.00
2024-05-09T06:24:29.879Z,2.00
2024-05-09T06:25:29.917Z,2.40
2024-05-09T06:26:30.009Z,2.00
2024-05-09T06:27:29.879Z,2.70
2024-05-09T06:28:29.855Z,2.60
2024-05-09T06:29:29.992Z,2.40
2024-05-09T06:30:37.289Z,2.80
2024-05-09T06:31:30.960Z,2.70
2024-05-09T06:32:29.919Z,2.60
2024-05-09T06:33:31.117Z,3.00
2024-05-09T06:34:30.007Z,2.90
2024-05-09T06:35:29.922Z,2.60
2024-05-09T06:36:29.829Z,2.70
2024-05-09T06:37:29.837Z,2.90
2024-05-09T06:38:29.847Z,2.60
2024-05-09T06:39:29.812Z,2.50
2024-05-09T06:40:36.655Z,2.30
2024-05-09T06:41:31.831Z,2.50
2024-05-09T06:42:29.806Z,2.60
2024-05-09T06:43:29.780Z,2.90
2024-05-09T06:44:29.916Z,2.70
2024-05-09T06:45:29.775Z,3.40
2024-05-09T06:46:29.772Z,2.50
2024-05-09T06:47:29.874Z,2.90
2024-05-09T06:48:29.931Z,3.30
2024-05-09T06:49:30.086Z,3.10
2024-05-09T06:50:35.778Z,2.80
2024-05-09T06:51:31.745Z,2.90
2024-05-09T06:52:29.748Z,2.60
2024-05-09T06:53:29.817Z,3.00
2024-05-09T06:54:29.735Z,2.70
2024-05-09T06:55:29.733Z,2.90
2024-05-09T06:56:29.891Z,3.50
2024-05-09T06:57:29.721Z,2.90
2024-05-09T06:58:29.714Z,2.50
2024-05-09T06:59:29.875Z,3.00
2024-05-09T07:00:35.624Z,2.50
2024-05-09T07:01:31.798Z,3.10
2024-05-09T07:02:30.818Z,2.60
2024-05-09T07:03:29.780Z,2.90
2024-05-09T07:04:29.841Z,2.90
2024-05-09T07:05:29.839Z,3.00
2024-05-09T07:06:29.715Z,2.80
2024-05-09T07:07:29.701Z,3.10
2024-05-09T07:08:29.704Z,2.80
2024-05-09T07:09:29.663Z,3.10
2024-05-09T07:10:34.792Z,2.80
2024-05-09T07:11:30.751Z,3.00
2024-05-09T07:12:29.771Z,3.40
2024-05-09T07:13:29.658Z,3.50
2024-05-09T07:14:29.872Z,3.10
2024-05-09T07:15:29.636Z,3.20
2024-05-09T07:16:29.623Z,3.00
2024-05-09T07:17:29.841Z,3.00
2024-05-09T07:18:29.848Z,3.10
2024-05-09T07:19:29.704Z,2.90
2024-05-09T07:20:34.498Z,2.80
2024-05-09T07:21:31.587Z,3.00
2024-05-09T07:22:29.612Z,2.60
2024-05-09T07:23:29.630Z,2.60
2024-05-09T07:24:29.601Z,2.30
2024-05-09T07:25:29.770Z,2.20
2024-05-09T07:26:29.659Z,2.10
2024-05-09T07:27:29.950Z,2.60
2024-05-09T07:28:29.555Z,2.60
2024-05-09T07:29:29.661Z,2.30
2024-05-09T07:30:33.504Z,2.30
2024-05-09T07:31:31.575Z,2.40
2024-05-09T07:32:29.661Z,2.10
2024-05-09T07:33:29.702Z,2.20
2024-05-09T07:34:29.665Z,1.70
2024-05-09T07:35:29.785Z,2.00
2024-05-09T07:36:29.550Z,2.30
2024-05-09T07:37:29.548Z,2.00
2024-05-09T07:38:29.571Z,2.20
2024-05-09T07:39:29.524Z,1.80
2024-05-09T07:40:35.634Z,2.10
2024-05-09T07:41:30.673Z,1.70
2024-05-09T07:42:29.538Z,1.60
2024-05-09T07:43:30.495Z,2.00
2024-05-09T07:44:29.535Z,2.10
2024-05-09T07:45:45.802Z,2.00
2024-05-09T07:47:37.123Z,1.90
2024-05-09T07:48:57.442Z,1.90
2024-05-09T07:50:01.284Z,2.20
2024-05-09T07:53:08.313Z,2.40
2024-05-09T07:53:32.698Z,1.70
2024-05-09T07:53:40.411Z,1.80
2024-05-09T07:54:31.574Z,2.50
2024-05-09T07:55:29.623Z,2.20
2024-05-09T07:56:29.977Z,1.80
2024-05-09T07:57:29.457Z,1.70
2024-05-09T07:58:29.537Z,2.10
2024-05-09T07:59:29.457Z,2.10
2024-05-09T08:00:31.728Z,2.10
2024-05-09T08:01:30.577Z,1.80
2024-05-09T08:02:29.578Z,1.70
2024-05-09T08:03:29.587Z,1.70
2024-05-09T08:04:29.549Z,2.00
2024-05-09T08:05:29.560Z,1.60
2024-05-09T08:06:29.428Z,1.90
2024-05-09T08:07:29.371Z,1.80
2024-05-09T08:08:29.441Z,2.20
2024-05-09T08:09:29.632Z,1.70
2024-05-09T08:10:29.562Z,1.90
2024-05-09T08:11:29.393Z,1.60
2024-05-09T08:12:29.411Z,2.00
2024-05-09T08:13:29.373Z,1.50
2024-05-09T08:14:29.358Z,1.70
2024-05-09T08:15:29.694Z,1.50
2024-05-09T08:16:29.515Z,1.70
2024-05-09T08:17:29.402Z,1.40
2024-05-09T08:18:29.615Z,1.60
2024-05-09T08:19:29.375Z,2.00
2024-05-09T08:20:33.652Z,1.70
2024-05-09T08:21:31.359Z,1.60
2024-05-09T08:22:29.324Z,1.50
2024-05-09T08:23:29.299Z,1.60
2024-05-09T08:24:29.353Z,1.70
2024-05-09T08:25:29.283Z,1.90
2024-05-09T08:26:29.297Z,1.90
2024-05-09T08:27:29.280Z,2.00
2024-05-09T08:28:29.321Z,1.90
2024-05-09T08:29:29.277Z,1.30
2024-05-09T08:30:33.866Z,1.60
2024-05-09T08:31:30.477Z,1.60
2024-05-09T08:32:29.893Z,1.70
2024-05-09T08:33:29.479Z,1.40
2024-05-09T08:34:29.392Z,1.90
2024-05-09T08:35:29.235Z,1.20
2024-05-09T08:36:29.385Z,1.30
2024-05-09T08:37:32.878Z,1.40
2024-05-09T08:38:31.223Z,1.10
2024-05-09T08:39:29.264Z,1.30
2024-05-09T08:40:34.468Z,1.00
2024-05-09T08:41:31.260Z,1.20
2024-05-09T08:42:29.278Z,1.40
2024-05-09T08:43:30.973Z,0.90
2024-05-09T08:44:29.196Z,1.10
2024-05-09T08:45:29.264Z,1.10
2024-05-09T08:46:29.369Z,1.30
2024-05-09T08:47:29.265Z,1.50
2024-05-09T08:48:29.328Z,1.40
2024-05-09T08:49:29.686Z,1.00
2024-05-09T08:50:36.426Z,1.40
2024-05-09T08:51:30.218Z,1.00
2024-05-09T08:52:29.136Z,1.40
2024-05-09T08:53:29.164Z,1.00
2024-05-09T08:54:29.229Z,0.80
2024-05-09T08:55:29.129Z,1.20
2024-05-09T08:56:29.125Z,0.90
2024-05-09T08:57:29.129Z,1.10
2024-05-09T08:58:29.116Z,0.90
2024-05-09T08:59:29.106Z,1.10
2024-05-09T09:00:36.099Z,1.30
2024-05-09T09:01:32.057Z,0.90
2024-05-09T09:02:29.177Z,1.30
2024-05-09T09:03:29.415Z,1.10
2024-05-09T09:04:29.158Z,1.10
2024-05-09T09:05:29.270Z,0.90
2024-05-09T09:06:29.086Z,0.90
2024-05-09T09:07:29.176Z,1.10
2024-05-09T09:08:29.075Z,1.10
2024-05-09T09:09:30.107Z,0.90
2024-05-09T09:10:31.868Z,0.80
2024-05-09T09:11:30.108Z,1.00
2024-05-09T09:12:29.151Z,1.10
2024-05-09T09:13:29.050Z,1.40
2024-05-09T09:14:29.028Z,0.90
2024-05-09T09:15:29.064Z,1.20
2024-05-09T09:16:29.030Z,1.00
2024-05-09T09:17:29.862Z,0.90
2024-05-09T09:18:29.373Z,0.90
2024-05-09T09:19:29.051Z,0.90
2024-05-09T09:20:35.675Z,1.10
2024-05-09T09:21:31.059Z,0.90
2024-05-09T09:22:29.003Z,1.10
2024-05-09T09:23:28.965Z,1.10
2024-05-09T09:24:29.020Z,1.20
2024-05-09T09:25:28.984Z,1.20
2024-05-09T09:26:28.960Z,1.10
2024-05-09T09:27:29.004Z,1.30
2024-05-09T09:28:28.961Z,1.00
2024-05-09T09:29:28.970Z,0.90
2024-05-09T09:30:36.351Z,0.80
2024-05-09T09:31:31.141Z,1.10
2024-05-09T09:32:29.011Z,1.10
2024-05-09T09:33:29.065Z,1.00
2024-05-09T09:34:29.189Z,1.10
2024-05-09T09:35:28.932Z,0.90
2024-05-09T09:36:29.023Z,1.30
2024-05-09T09:37:28.917Z,1.10
2024-05-09T09:38:28.918Z,1.10
2024-05-09T09:39:28.913Z,1.00
2024-05-09T09:40:32.279Z,1.00
2024-05-09T09:41:31.076Z,1.10
2024-05-09T09:42:28.915Z,1.40
2024-05-09T09:43:28.891Z,1.20
2024-05-09T09:44:28.879Z,1.10
2024-05-09T09:45:28.941Z,1.00
2024-05-09T09:46:29.022Z,0.80
2024-05-09T09:47:29.015Z,0.90
2024-05-09T09:48:29.024Z,0.80
2024-05-09T09:49:28.895Z,1.00
2024-05-09T09:50:34.274Z,1.00
2024-05-09T09:51:29.905Z,1.00
2024-05-09T09:52:29.193Z,0.90
2024-05-09T09:53:28.830Z,0.90
2024-05-09T09:54:28.855Z,0.90
2024-05-09T09:55:28.825Z,1.20
2024-05-09T09:56:28.835Z,1.00
2024-05-09T09:57:28.854Z,1.00
2024-05-09T09:58:28.858Z,0.80
2024-05-09T09:59:28.807Z,1.10
2024-05-09T10:00:32.911Z,0.80
2024-05-09T10:01:30.994Z,0.90
2024-05-09T10:02:28.992Z,0.90
2024-05-09T10:03:29.042Z,0.80
2024-05-09T10:04:28.904Z,0.90
2024-05-09T10:05:29.027Z,0.70
2024-05-09T10:06:28.812Z,8.00
2024-05-09T10:07:28.803Z,1.50
2024-05-09T10:08:28.807Z,0.80
2024-05-09T10:09:28.805Z,0.60
2024-05-09T10:10:32.333Z,0.80
2024-05-09T10:11:29.831Z,0.70
2024-05-09T10:12:28.833Z,1.00
2024-05-09T10:13:28.805Z,0.80
2024-05-09T10:14:28.791Z,1.00
2024-05-09T10:15:28.800Z,0.90
2024-05-09T10:16:28.823Z,0.70
2024-05-09T10:17:28.922Z,0.70
2024-05-09T10:18:31.187Z,0.70
2024-05-09T10:19:28.853Z,0.90
2024-05-09T10:20:32.535Z,0.90
2024-05-09T10:21:28.711Z,0.80
2024-05-09T10:22:28.799Z,0.80
2024-05-09T10:23:28.755Z,0.70
2024-05-09T10:24:28.684Z,0.90
2024-05-09T10:25:28.713Z,0.70
2024-05-09T10:26:28.670Z,0.80
2024-05-09T10:27:28.737Z,1.20
2024-05-09T10:28:28.703Z,0.80
2024-05-09T10:29:28.662Z,0.70
2024-05-09T10:30:34.235Z,1.10
2024-05-09T10:31:29.739Z,0.50
2024-05-09T10:32:28.751Z,0.90
2024-05-09T10:33:28.809Z,0.80
2024-05-09T10:34:28.769Z,0.90
2024-05-09T10:35:28.627Z,0.60
2024-05-09T10:36:29.674Z,0.60
2024-05-09T10:37:28.704Z,0.80
2024-05-09T10:38:28.627Z,0.70
2024-05-09T10:39:28.636Z,0.50
2024-05-09T10:40:31.286Z,0.90
2024-05-09T10:41:29.606Z,0.80
2024-05-09T10:42:28.648Z,0.60
2024-05-09T10:43:28.630Z,0.80
2024-05-09T10:44:28.589Z,0.50
2024-05-09T10:45:28.654Z,0.80
2024-05-09T10:46:29.309Z,0.70
2024-05-09T10:47:28.679Z,0.60
2024-05-09T10:48:28.662Z,0.70
2024-05-09T10:49:28.581Z,0.60
2024-05-09T10:50:31.991Z,0.50
2024-05-09T10:51:28.617Z,0.90
2024-05-09T10:52:28.682Z,0.90
2024-05-09T10:53:28.527Z,0.70
2024-05-09T10:54:28.590Z,0.60
2024-05-09T10:55:28.586Z,1.10
2024-05-09T10:56:28.550Z,1.00
2024-05-09T10:57:28.576Z,0.90
2024-05-09T10:58:28.523Z,0.60
2024-05-09T10:59:28.517Z,0.90
2024-05-09T11:00:33.693Z,0.90
2024-05-09T11:01:29.587Z,0.70
2024-05-09T11:02:28.722Z,0.70
2024-05-09T11:03:28.631Z,0.90
2024-05-09T11:04:28.571Z,0.80
2024-05-09T11:05:28.709Z,0.80
2024-05-09T11:06:28.516Z,0.80
2024-05-09T11:07:28.549Z,0.70
2024-05-09T11:08:28.480Z,0.80
2024-05-09T11:09:28.499Z,0.70
2024-05-09T11:10:33.740Z,0.80
2024-05-09T11:11:28.584Z,0.60
2024-05-09T11:12:28.562Z,0.60
2024-05-09T11:13:28.447Z,0.70
2024-05-09T11:14:28.436Z,0.80
2024-05-09T11:15:28.424Z,0.70
2024-05-09T11:16:28.434Z,0.60
2024-05-09T11:17:28.729Z,1.60
2024-05-09T11:18:30.787Z,0.70
2024-05-09T11:19:29.486Z,0.70
2024-05-09T11:20:29.969Z,0.90
2024-05-09T11:21:29.497Z,0.60
2024-05-09T11:22:28.449Z,0.60
2024-05-09T11:23:28.401Z,0.90
2024-05-09T11:24:28.432Z,0.60
2024-05-09T11:25:28.388Z,0.60
2024-05-09T11:26:28.378Z,0.70
2024-05-09T11:27:28.505Z,0.70
2024-05-09T11:28:28.790Z,1.00
2024-05-09T11:29:28.395Z,1.00
2024-05-09T11:30:31.880Z,0.70
2024-05-09T11:31:28.470Z,0.80
2024-05-09T11:32:28.506Z,0.60
2024-05-09T11:33:28.487Z,0.50
2024-05-09T11:34:28.348Z,0.50
2024-05-09T11:35:28.346Z,0.90
2024-05-09T11:36:28.381Z,0.40
2024-05-09T11:37:28.360Z,0.60
2024-05-09T11:38:28.370Z,0.60
2024-05-09T11:39:28.363Z,0.90
2024-05-09T11:40:33.966Z,0.90
2024-05-09T11:41:30.344Z,0.60
2024-05-09T11:42:28.321Z,1.60
2024-05-09T11:43:28.360Z,1.70
2024-05-09T11:44:28.296Z,0.80
2024-05-09T11:45:28.408Z,0.90
2024-05-09T11:46:28.347Z,0.50
2024-05-09T11:47:28.366Z,0.50
2024-05-09T11:48:28.516Z,0.60
2024-05-09T11:49:28.355Z,0.40
2024-05-09T11:50:32.867Z,0.60
2024-05-09T11:51:28.280Z,0.30
2024-05-09T11:52:28.284Z,0.50
2024-05-09T11:53:28.298Z,0.90
2024-05-09T11:54:28.281Z,0.50
2024-05-09T11:55:28.639Z,0.50
2024-05-09T11:56:28.254Z,0.70
2024-05-09T11:57:28.368Z,0.60
2024-05-09T11:58:28.272Z,0.60
2024-05-09T11:59:28.268Z,0.60
2024-05-09T12:00:34.191Z,0.60
2024-05-09T12:01:30.449Z,0.50
2024-05-09T12:02:28.369Z,0.50
2024-05-09T12:03:28.291Z,0.50
2024-05-09T12:04:28.328Z,0.50
2024-05-09T12:05:28.590Z,0.60
2024-05-09T12:06:28.234Z,0.70
2024-05-09T12:07:28.256Z,0.70
2024-05-09T12:08:28.209Z,0.40
2024-05-09T12:09:28.274Z,1.20
2024-05-09T12:10:33.350Z,0.80
2024-05-09T12:11:29.376Z,0.80
2024-05-09T12:12:28.233Z,1.40
2024-05-09T12:13:28.370Z,0.90
2024-05-09T12:14:28.188Z,1.20
2024-05-09T12:15:28.215Z,2.10
2024-05-09T12:16:28.395Z,3.70
2024-05-09T12:17:28.250Z,1.40
2024-05-09T12:18:28.298Z,0.80
2024-05-09T12:19:28.217Z,0.80
2024-05-09T12:20:35.117Z,0.70
2024-05-09T12:21:30.202Z,0.90
2024-05-09T12:22:28.129Z,0.60
2024-05-09T12:23:28.158Z,0.80
2024-05-09T12:24:28.172Z,0.70
2024-05-09T12:25:28.123Z,1.00
2024-05-09T12:26:28.108Z,0.90
2024-05-09T12:27:28.195Z,0.40
2024-05-09T12:28:28.152Z,0.70
2024-05-09T12:29:28.119Z,0.70
2024-05-09T12:30:35.686Z,0.60
2024-05-09T12:31:29.216Z,0.70
2024-05-09T12:32:28.228Z,0.50
2024-05-09T12:33:28.271Z,0.60
2024-05-09T12:34:28.118Z,0.50
2024-05-09T12:35:28.090Z,0.60
2024-05-09T12:36:28.166Z,0.70
2024-05-09T12:37:28.059Z,0.70
2024-05-09T12:38:28.066Z,0.70
2024-05-09T12:39:28.085Z,0.60
2024-05-09T12:40:35.225Z,0.50
2024-05-09T12:41:30.048Z,0.40
2024-05-09T12:42:29.478Z,0.50
2024-05-09T12:43:28.240Z,0.50
2024-05-09T12:44:28.535Z,1.30
2024-05-09T12:45:28.176Z,1.20
2024-05-09T12:46:28.169Z,0.70
2024-05-09T12:47:28.117Z,0.80
2024-05-09T12:48:28.333Z,0.70
2024-05-09T12:49:28.239Z,0.60
2024-05-09T12:50:32.617Z,0.60
2024-05-09T12:51:29.051Z,0.50
2024-05-09T12:52:28.006Z,0.40
2024-05-09T12:53:27.984Z,0.60
2024-05-09T12:54:28.004Z,0.60
2024-05-09T12:55:28.673Z,0.80
2024-05-09T12:56:28.980Z,0.60
2024-05-09T12:57:27.971Z,0.50
2024-05-09T12:58:28.022Z,0.50
2024-05-09T12:59:27.981Z,0.50
2024-05-09T13:00:33.548Z,0.60
2024-05-09T13:01:29.034Z,0.80
2024-05-09T13:02:28.180Z,0.80
2024-05-09T13:03:28.164Z,0.40
2024-05-09T13:04:28.174Z,0.90
2024-05-09T13:05:28.142Z,0.90
2024-05-09T13:06:28.004Z,0.80
2024-05-09T13:07:28.022Z,0.50
2024-05-09T13:08:27.939Z,0.70
2024-05-09T13:09:27.974Z,0.50
2024-05-09T13:10:32.197Z,0.80
2024-05-09T13:11:28.984Z,0.40
2024-05-09T13:12:28.106Z,0.60
2024-05-09T13:13:27.910Z,0.70
2024-05-09T13:14:27.960Z,0.50
2024-05-09T13:15:28.677Z,0.60
2024-05-09T13:16:27.931Z,0.60
2024-05-09T13:17:28.016Z,0.60
2024-05-09T13:18:28.030Z,0.70
2024-05-09T13:19:28.955Z,0.40
2024-05-09T13:20:32.531Z,0.50